sensor_id;sensor_type;location;lat;lon;timestamp;temperature;humidity
68578;SHT31;61668;45.388;11.784;2023-05-07T00:00:45;16.88;71.06
68578;SHT31;61668;45.388;11.784;2023-05-07T00:03:11;16.85;71.30
68578;SHT31;61668;45.388;11.784;2023-05-07T00:05:38;16.82;71.50
68578;SHT31;61668;45.388;11.784;2023-05-07T00:08:05;16.78;71.65
68578;SHT31;61668;45.388;11.784;2023-05-07T00:10:30;16.75;71.87
68578;SHT31;61668;45.388;11.784;2023-05-07T00:12:56;16.70;72.12
68578;SHT31;61668;45.388;11.784;2023-05-07T00:15:22;16.68;72.32
68578;SHT31;61668;45.388;11.784;2023-05-07T00:17:47;16.65;72.49
68578;SHT31;61668;45.388;11.784;2023-05-07T00:20:13;16.63;72.56
68578;SHT31;61668;45.388;11.784;2023-05-07T00:22:39;16.60;72.41
68578;SHT31;61668;45.388;11.784;2023-05-07T00:25:05;16.59;72.73
68578;SHT31;61668;45.388;11.784;2023-05-07T00:27:31;16.56;72.96
68578;SHT31;61668;45.388;11.784;2023-05-07T00:29:57;16.53;73.09
68578;SHT31;61668;45.388;11.784;2023-05-07T00:32:22;16.50;73.01
68578;SHT31;61668;45.388;11.784;2023-05-07T00:34:48;16.48;73.22
68578;SHT31;61668;45.388;11.784;2023-05-07T00:37:14;16.45;73.46
68578;SHT31;61668;45.388;11.784;2023-05-07T00:39:40;16.43;73.40
68578;SHT31;61668;45.388;11.784;2023-05-07T00:42:06;16.42;73.55
68578;SHT31;61668;45.388;11.784;2023-05-07T00:44:33;16.39;73.67
68578;SHT31;61668;45.388;11.784;2023-05-07T00:46:59;16.37;73.78
68578;SHT31;61668;45.388;11.784;2023-05-07T00:49:35;16.35;73.76
68578;SHT31;61668;45.388;11.784;2023-05-07T00:52:08;16.32;73.84
68578;SHT31;61668;45.388;11.784;2023-05-07T00:54:37;16.31;73.87
68578;SHT31;61668;45.388;11.784;2023-05-07T00:57:03;16.29;74.25
68578;SHT31;61668;45.388;11.784;2023-05-07T00:59:30;16.26;74.30
68578;SHT31;61668;45.388;11.784;2023-05-07T01:01:57;16.23;74.25
68578;SHT31;61668;45.388;11.784;2023-05-07T01:04:23;16.22;74.34
68578;SHT31;61668;45.388;11.784;2023-05-07T01:06:49;16.21;74.52
68578;SHT31;61668;45.388;11.784;2023-05-07T01:12:14;16.18;74.60
68578;SHT31;61668;45.388;11.784;2023-05-07T01:14:40;16.16;74.52
68578;SHT31;61668;45.388;11.784;2023-05-07T01:17:07;16.15;74.66
68578;SHT31;61668;45.388;11.784;2023-05-07T01:19:33;16.12;74.59
68578;SHT31;61668;45.388;11.784;2023-05-07T01:22:04;16.12;74.75
68578;SHT31;61668;45.388;11.784;2023-05-07T01:24:36;16.10;74.86
68578;SHT31;61668;45.388;11.784;2023-05-07T01:27:03;16.07;74.91
68578;SHT31;61668;45.388;11.784;2023-05-07T01:29:29;16.06;75.00
68578;SHT31;61668;45.388;11.784;2023-05-07T01:31:58;16.04;74.99
68578;SHT31;61668;45.388;11.784;2023-05-07T01:34:27;16.03;74.95
68578;SHT31;61668;45.388;11.784;2023-05-07T01:36:56;16.00;74.90
68578;SHT31;61668;45.388;11.784;2023-05-07T01:39:27;15.99;74.92
68578;SHT31;61668;45.388;11.784;2023-05-07T01:41:54;15.97;75.01
68578;SHT31;61668;45.388;11.784;2023-05-07T01:44:21;15.95;75.08
68578;SHT31;61668;45.388;11.784;2023-05-07T01:46:48;15.94;75.12
68578;SHT31;61668;45.388;11.784;2023-05-07T01:49:15;15.92;75.28
68578;SHT31;61668;45.388;11.784;2023-05-07T01:51:41;15.90;75.26
68578;SHT31;61668;45.388;11.784;2023-05-07T01:54:09;15.86;75.22
68578;SHT31;61668;45.388;11.784;2023-05-07T01:56:35;15.83;75.30
68578;SHT31;61668;45.388;11.784;2023-05-07T01:59:01;15.81;75.20
68578;SHT31;61668;45.388;11.784;2023-05-07T02:01:27;15.79;75.25
68578;SHT31;61668;45.388;11.784;2023-05-07T02:03:54;15.76;75.37
68578;SHT31;61668;45.388;11.784;2023-05-07T02:06:20;15.75;75.43
68578;SHT31;61668;45.388;11.784;2023-05-07T02:08:46;15.73;75.43
68578;SHT31;61668;45.388;11.784;2023-05-07T02:11:12;15.70;75.50
68578;SHT31;61668;45.388;11.784;2023-05-07T02:13:38;15.69;75.46
68578;SHT31;61668;45.388;11.784;2023-05-07T02:16:04;15.67;75.59
68578;SHT31;61668;45.388;11.784;2023-05-07T02:18:30;15.66;75.69
68578;SHT31;61668;45.388;11.784;2023-05-07T02:20:57;15.64;75.77
68578;SHT31;61668;45.388;11.784;2023-05-07T02:23:22;15.64;75.89
68578;SHT31;61668;45.388;11.784;2023-05-07T02:25:48;15.61;75.84
68578;SHT31;61668;45.388;11.784;2023-05-07T02:28:14;15.61;75.88
68578;SHT31;61668;45.388;11.784;2023-05-07T02:30:40;15.59;75.80
68578;SHT31;61668;45.388;11.784;2023-05-07T02:33:06;15.56;75.84
68578;SHT31;61668;45.388;11.784;2023-05-07T02:35:33;15.55;75.90
68578;SHT31;61668;45.388;11.784;2023-05-07T02:37:59;15.53;75.92
68578;SHT31;61668;45.388;11.784;2023-05-07T02:40:25;15.52;75.92
68578;SHT31;61668;45.388;11.784;2023-05-07T02:42:51;15.50;75.90
68578;SHT31;61668;45.388;11.784;2023-05-07T02:45:16;15.48;76.00
68578;SHT31;61668;45.388;11.784;2023-05-07T02:47:42;15.46;76.01
68578;SHT31;61668;45.388;11.784;2023-05-07T02:50:08;15.43;76.13
68578;SHT31;61668;45.388;11.784;2023-05-07T02:52:34;15.40;76.23
68578;SHT31;61668;45.388;11.784;2023-05-07T02:55:00;15.37;76.30
68578;SHT31;61668;45.388;11.784;2023-05-07T02:57:25;15.35;76.39
68578;SHT31;61668;45.388;11.784;2023-05-07T02:59:51;15.33;76.44
68578;SHT31;61668;45.388;11.784;2023-05-07T03:02:17;15.30;76.52
68578;SHT31;61668;45.388;11.784;2023-05-07T03:04:42;15.28;76.50
68578;SHT31;61668;45.388;11.784;2023-05-07T03:07:08;15.27;76.49
68578;SHT31;61668;45.388;11.784;2023-05-07T03:09:34;15.26;76.54
68578;SHT31;61668;45.388;11.784;2023-05-07T03:12:00;15.24;76.68
68578;SHT31;61668;45.388;11.784;2023-05-07T03:14:26;15.22;76.80
68578;SHT31;61668;45.388;11.784;2023-05-07T03:16:52;15.20;76.76
68578;SHT31;61668;45.388;11.784;2023-05-07T03:19:18;15.19;76.61
68578;SHT31;61668;45.388;11.784;2023-05-07T03:21:43;15.17;76.89
68578;SHT31;61668;45.388;11.784;2023-05-07T03:24:09;15.16;77.10
68578;SHT31;61668;45.388;11.784;2023-05-07T03:26:35;15.13;77.27
68578;SHT31;61668;45.388;11.784;2023-05-07T03:29:01;15.12;77.32
68578;SHT31;61668;45.388;11.784;2023-05-07T03:31:26;15.10;77.35
68578;SHT31;61668;45.388;11.784;2023-05-07T03:33:53;15.09;77.52
68578;SHT31;61668;45.388;11.784;2023-05-07T03:36:21;15.09;77.58
68578;SHT31;61668;45.388;11.784;2023-05-07T03:38:48;15.08;77.66
68578;SHT31;61668;45.388;11.784;2023-05-07T03:41:15;15.06;77.77
68578;SHT31;61668;45.388;11.784;2023-05-07T03:43:41;15.06;77.80
68578;SHT31;61668;45.388;11.784;2023-05-07T03:46:06;15.06;77.90
68578;SHT31;61668;45.388;11.784;2023-05-07T03:48:32;15.07;77.90
68578;SHT31;61668;45.388;11.784;2023-05-07T03:50:58;15.07;77.87
68578;SHT31;61668;45.388;11.784;2023-05-07T03:53:24;15.06;77.87
68578;SHT31;61668;45.388;11.784;2023-05-07T03:55:50;15.06;77.72
68578;SHT31;61668;45.388;11.784;2023-05-07T03:58:16;15.06;77.59
68578;SHT31;61668;45.388;11.784;2023-05-07T04:00:41;15.05;77.60
68578;SHT31;61668;45.388;11.784;2023-05-07T04:03:07;15.04;77.60
68578;SHT31;61668;45.388;11.784;2023-05-07T04:05:34;15.02;77.68
68578;SHT31;61668;45.388;11.784;2023-05-07T04:08:00;15.02;77.81
68578;SHT31;61668;45.388;11.784;2023-05-07T04:10:27;15.01;77.92
68578;SHT31;61668;45.388;11.784;2023-05-07T04:12:55;15.00;78.00
68578;SHT31;61668;45.388;11.784;2023-05-07T04:15:23;15.00;77.86
68578;SHT31;61668;45.388;11.784;2023-05-07T04:17:49;14.99;77.69
68578;SHT31;61668;45.388;11.784;2023-05-07T04:20:15;14.99;77.65
68578;SHT31;61668;45.388;11.784;2023-05-07T04:22:42;14.98;77.67
68578;SHT31;61668;45.388;11.784;2023-05-07T04:25:08;14.99;77.53
68578;SHT31;61668;45.388;11.784;2023-05-07T04:27:35;14.99;77.50
68578;SHT31;61668;45.388;11.784;2023-05-07T04:30:02;15.00;77.51
68578;SHT31;61668;45.388;11.784;2023-05-07T04:32:29;15.01;77.56
68578;SHT31;61668;45.388;11.784;2023-05-07T04:34:56;15.02;77.65
68578;SHT31;61668;45.388;11.784;2023-05-07T04:37:24;15.04;77.85
68578;SHT31;61668;45.388;11.784;2023-05-07T04:39:52;15.06;77.94
68578;SHT31;61668;45.388;11.784;2023-05-07T04:42:24;15.07;78.01
68578;SHT31;61668;45.388;11.784;2023-05-07T04:44:52;15.09;78.00
68578;SHT31;61668;45.388;11.784;2023-05-07T04:47:19;15.11;78.10
68578;SHT31;61668;45.388;11.784;2023-05-07T04:49:46;15.14;78.10
68578;SHT31;61668;45.388;11.784;2023-05-07T04:52:12;15.17;78.12
68578;SHT31;61668;45.388;11.784;2023-05-07T04:54:37;15.20;78.17
68578;SHT31;61668;45.388;11.784;2023-05-07T04:57:03;15.23;78.18
68578;SHT31;61668;45.388;11.784;2023-05-07T04:59:29;15.29;78.19
68578;SHT31;61668;45.388;11.784;2023-05-07T05:01:55;15.33;78.17
68578;SHT31;61668;45.388;11.784;2023-05-07T05:04:21;15.38;78.31
68578;SHT31;61668;45.388;11.784;2023-05-07T05:06:47;15.44;78.33
68578;SHT31;61668;45.388;11.784;2023-05-07T05:09:12;15.53;78.31
68578;SHT31;61668;45.388;11.784;2023-05-07T05:11:39;15.64;78.20
68578;SHT31;61668;45.388;11.784;2023-05-07T05:14:04;15.76;78.13
68578;SHT31;61668;45.388;11.784;2023-05-07T05:16:30;15.93;77.98
68578;SHT31;61668;45.388;11.784;2023-05-07T05:18:56;16.15;77.74
68578;SHT31;61668;45.388;11.784;2023-05-07T05:21:22;16.35;77.57
68578;SHT31;61668;45.388;11.784;2023-05-07T05:23:47;16.58;77.30
68578;SHT31;61668;45.388;11.784;2023-05-07T05:26:13;16.81;77.02
68578;SHT31;61668;45.388;11.784;2023-05-07T05:28:39;17.05;76.54
68578;SHT31;61668;45.388;11.784;2023-05-07T05:31:05;17.31;76.17
68578;SHT31;61668;45.388;11.784;2023-05-07T05:33:31;17.59;75.67
68578;SHT31;61668;45.388;11.784;2023-05-07T05:35:56;17.86;75.06
68578;SHT31;61668;45.388;11.784;2023-05-07T05:38:22;18.13;74.52
68578;SHT31;61668;45.388;11.784;2023-05-07T05:40:48;18.36;73.96
68578;SHT31;61668;45.388;11.784;2023-05-07T05:43:14;18.58;73.36
68578;SHT31;61668;45.388;11.784;2023-05-07T05:45:40;18.78;72.96
68578;SHT31;61668;45.388;11.784;2023-05-07T05:48:06;18.96;72.50
68578;SHT31;61668;45.388;11.784;2023-05-07T05:50:33;19.16;72.08
68578;SHT31;61668;45.388;11.784;2023-05-07T05:53:01;19.46;71.52
68578;SHT31;61668;45.388;11.784;2023-05-07T05:55:27;19.83;70.70
68578;SHT31;61668;45.388;11.784;2023-05-07T05:57:53;20.11;69.97
68578;SHT31;61668;45.388;11.784;2023-05-07T06:00:19;20.47;69.28
68578;SHT31;61668;45.388;11.784;2023-05-07T06:02:47;20.83;68.48
68578;SHT31;61668;45.388;11.784;2023-05-07T06:05:13;21.22;67.42
68578;SHT31;61668;45.388;11.784;2023-05-07T06:07:40;21.61;66.36
68578;SHT31;61668;45.388;11.784;2023-05-07T06:10:06;21.99;65.37
68578;SHT31;61668;45.388;11.784;2023-05-07T06:12:32;22.34;63.81
68578;SHT31;61668;45.388;11.784;2023-05-07T06:14:58;22.68;62.83
68578;SHT31;61668;45.388;11.784;2023-05-07T06:17:24;22.94;62.07
68578;SHT31;61668;45.388;11.784;2023-05-07T06:19:50;23.22;61.34
68578;SHT31;61668;45.388;11.784;2023-05-07T06:22:16;23.51;60.59
68578;SHT31;61668;45.388;11.784;2023-05-07T06:24:42;23.78;59.96
68578;SHT31;61668;45.388;11.784;2023-05-07T06:27:08;24.00;59.22
68578;SHT31;61668;45.388;11.784;2023-05-07T06:29:34;24.18;58.30
68578;SHT31;61668;45.388;11.784;2023-05-07T06:32:06;24.36;57.93
68578;SHT31;61668;45.388;11.784;2023-05-07T06:34:37;24.72;57.12
68578;SHT31;61668;45.388;11.784;2023-05-07T06:37:04;25.08;56.25
68578;SHT31;61668;45.388;11.784;2023-05-07T06:39:30;25.39;55.16
68578;SHT31;61668;45.388;11.784;2023-05-07T06:41:56;25.67;54.40
68578;SHT31;61668;45.388;11.784;2023-05-07T06:44:22;25.86;53.45
68578;SHT31;61668;45.388;11.784;2023-05-07T06:46:52;25.78;53.89
68578;SHT31;61668;45.388;11.784;2023-05-07T06:49:18;25.69;53.95
68578;SHT31;61668;45.388;11.784;2023-05-07T06:51:44;25.77;53.94
68578;SHT31;61668;45.388;11.784;2023-05-07T06:54:10;25.89;53.11
68578;SHT31;61668;45.388;11.784;2023-05-07T06:56:35;25.79;53.04
68578;SHT31;61668;45.388;11.784;2023-05-07T06:59:01;25.94;53.01
68578;SHT31;61668;45.388;11.784;2023-05-07T07:01:28;26.55;52.15
68578;SHT31;61668;45.388;11.784;2023-05-07T07:03:54;26.96;51.06
68578;SHT31;61668;45.388;11.784;2023-05-07T07:06:20;27.36;50.44
68578;SHT31;61668;45.388;11.784;2023-05-07T07:08:46;27.76;49.68
68578;SHT31;61668;45.388;11.784;2023-05-07T07:11:11;28.12;49.13
68578;SHT31;61668;45.388;11.784;2023-05-07T07:13:37;28.45;48.57
68578;SHT31;61668;45.388;11.784;2023-05-07T07:16:03;28.83;47.66
68578;SHT31;61668;45.388;11.784;2023-05-07T07:18:29;29.10;47.10
68578;SHT31;61668;45.388;11.784;2023-05-07T07:20:56;28.83;47.30
68578;SHT31;61668;45.388;11.784;2023-05-07T07:23:21;28.74;47.04
68578;SHT31;61668;45.388;11.784;2023-05-07T07:25:47;28.94;46.30
68578;SHT31;61668;45.388;11.784;2023-05-07T07:28:13;29.48;45.67
68578;SHT31;61668;45.388;11.784;2023-05-07T07:30:39;29.90;44.93
68578;SHT31;61668;45.388;11.784;2023-05-07T07:33:05;29.83;45.05
68578;SHT31;61668;45.388;11.784;2023-05-07T07:35:33;29.57;45.39
68578;SHT31;61668;45.388;11.784;2023-05-07T07:38:00;29.29;45.53
68578;SHT31;61668;45.388;11.784;2023-05-07T07:40:26;29.12;45.44
68578;SHT31;61668;45.388;11.784;2023-05-07T07:42:53;28.95;44.83
68578;SHT31;61668;45.388;11.784;2023-05-07T07:45:19;28.74;45.07
68578;SHT31;61668;45.388;11.784;2023-05-07T07:47:45;28.64;45.40
68578;SHT31;61668;45.388;11.784;2023-05-07T07:50:11;28.56;45.81
68578;SHT31;61668;45.388;11.784;2023-05-07T07:52:39;28.44;45.86
68578;SHT31;61668;45.388;11.784;2023-05-07T07:55:06;28.23;45.39
68578;SHT31;61668;45.388;11.784;2023-05-07T07:57:37;27.98;45.43
68578;SHT31;61668;45.388;11.784;2023-05-07T08:00:04;27.72;45.89
68578;SHT31;61668;45.388;11.784;2023-05-07T08:02:32;27.55;46.47
68578;SHT31;61668;45.388;11.784;2023-05-07T08:04:59;27.47;46.49
68578;SHT31;61668;45.388;11.784;2023-05-07T08:07:25;27.62;46.60
68578;SHT31;61668;45.388;11.784;2023-05-07T08:09:50;27.84;46.29
68578;SHT31;61668;45.388;11.784;2023-05-07T08:12:16;28.04;46.33
68578;SHT31;61668;45.388;11.784;2023-05-07T08:14:42;28.09;46.14
68578;SHT31;61668;45.388;11.784;2023-05-07T08:17:08;28.12;45.72
68578;SHT31;61668;45.388;11.784;2023-05-07T08:19:35;28.36;45.52
68578;SHT31;61668;45.388;11.784;2023-05-07T08:22:02;28.91;44.66
68578;SHT31;61668;45.388;11.784;2023-05-07T08:24:29;29.17;44.47
68578;SHT31;61668;45.388;11.784;2023-05-07T08:26:55;29.20;44.69
68578;SHT31;61668;45.388;11.784;2023-05-07T08:29:21;29.22;44.55
68578;SHT31;61668;45.388;11.784;2023-05-07T08:31:46;28.96;44.13
68578;SHT31;61668;45.388;11.784;2023-05-07T08:34:12;28.64;43.91
68578;SHT31;61668;45.388;11.784;2023-05-07T08:36:38;28.27;44.53
68578;SHT31;61668;45.388;11.784;2023-05-07T08:39:03;27.90;44.80
68578;SHT31;61668;45.388;11.784;2023-05-07T08:41:30;27.64;45.13
68578;SHT31;61668;45.388;11.784;2023-05-07T08:43:57;27.54;45.55
68578;SHT31;61668;45.388;11.784;2023-05-07T08:46:25;27.45;45.55
68578;SHT31;61668;45.388;11.784;2023-05-07T08:48:51;27.31;46.18
68578;SHT31;61668;45.388;11.784;2023-05-07T08:51:18;27.32;46.34
68578;SHT31;61668;45.388;11.784;2023-05-07T08:53:46;27.31;46.09
68578;SHT31;61668;45.388;11.784;2023-05-07T08:56:14;27.33;45.80
68578;SHT31;61668;45.388;11.784;2023-05-07T08:58:41;27.43;45.90
68578;SHT31;61668;45.388;11.784;2023-05-07T09:01:14;27.59;46.17
68578;SHT31;61668;45.388;11.784;2023-05-07T09:03:43;27.70;45.94
68578;SHT31;61668;45.388;11.784;2023-05-07T09:06:10;27.78;45.11
68578;SHT31;61668;45.388;11.784;2023-05-07T09:08:36;27.91;44.91
68578;SHT31;61668;45.388;11.784;2023-05-07T09:11:02;28.02;44.84
68578;SHT31;61668;45.388;11.784;2023-05-07T09:13:28;28.11;45.05
68578;SHT31;61668;45.388;11.784;2023-05-07T09:15:55;28.21;44.65
68578;SHT31;61668;45.388;11.784;2023-05-07T09:18:23;28.40;44.41
68578;SHT31;61668;45.388;11.784;2023-05-07T09:20:50;28.86;43.60
68578;SHT31;61668;45.388;11.784;2023-05-07T09:23:16;29.19;43.18
68578;SHT31;61668;45.388;11.784;2023-05-07T09:25:42;29.26;42.52
68578;SHT31;61668;45.388;11.784;2023-05-07T09:28:07;29.42;42.67
68578;SHT31;61668;45.388;11.784;2023-05-07T09:30:35;29.68;42.14
68578;SHT31;61668;45.388;11.784;2023-05-07T09:33:02;29.87;41.67
68578;SHT31;61668;45.388;11.784;2023-05-07T09:35:29;29.99;41.22
68578;SHT31;61668;45.388;11.784;2023-05-07T09:37:56;30.11;41.08
68578;SHT31;61668;45.388;11.784;2023-05-07T09:40:28;30.25;41.26
68578;SHT31;61668;45.388;11.784;2023-05-07T09:42:56;30.42;41.37
68578;SHT31;61668;45.388;11.784;2023-05-07T09:45:22;30.61;41.02
68578;SHT31;61668;45.388;11.784;2023-05-07T09:47:55;30.75;40.38
68578;SHT31;61668;45.388;11.784;2023-05-07T09:51:09;30.88;40.40
68578;SHT31;61668;45.388;11.784;2023-05-07T09:53:15;31.00;39.90
68578;SHT31;61668;45.388;11.784;2023-05-07T09:55:43;31.15;39.81
68578;SHT31;61668;45.388;11.784;2023-05-07T09:58:09;31.30;39.68
68578;SHT31;61668;45.388;11.784;2023-05-07T10:00:37;31.40;39.29
68578;SHT31;61668;45.388;11.784;2023-05-07T10:08:23;31.51;39.27
68578;SHT31;61668;45.388;11.784;2023-05-07T10:10:49;31.46;38.48
68578;SHT31;61668;45.388;11.784;2023-05-07T10:13:15;31.40;38.42
68578;SHT31;61668;45.388;11.784;2023-05-07T10:15:44;31.25;38.85
68578;SHT31;61668;45.388;11.784;2023-05-07T10:18:10;31.11;39.33
68578;SHT31;61668;45.388;11.784;2023-05-07T10:20:37;30.93;39.55
68578;SHT31;61668;45.388;11.784;2023-05-07T10:23:04;30.91;39.51
68578;SHT31;61668;45.388;11.784;2023-05-07T10:25:31;31.01;39.58
68578;SHT31;61668;45.388;11.784;2023-05-07T10:28:01;31.12;39.74
68578;SHT31;61668;45.388;11.784;2023-05-07T10:30:35;31.18;39.52
68578;SHT31;61668;45.388;11.784;2023-05-07T10:33:20;31.20;38.86
68578;SHT31;61668;45.388;11.784;2023-05-07T10:35:51;31.20;39.07
68578;SHT31;61668;45.388;11.784;2023-05-07T10:38:24;31.21;39.15
68578;SHT31;61668;45.388;11.784;2023-05-07T10:40:51;31.26;38.32
68578;SHT31;61668;45.388;11.784;2023-05-07T10:43:17;31.29;37.90
68578;SHT31;61668;45.388;11.784;2023-05-07T10:45:42;31.28;37.96
68578;SHT31;61668;45.388;11.784;2023-05-07T10:48:12;31.30;38.04
68578;SHT31;61668;45.388;11.784;2023-05-07T10:50:43;31.41;38.11
68578;SHT31;61668;45.388;11.784;2023-05-07T10:58:43;31.33;37.76
68578;SHT31;61668;45.388;11.784;2023-05-07T11:01:09;31.20;37.55
68578;SHT31;61668;45.388;11.784;2023-05-07T11:03:37;31.24;38.10
68578;SHT31;61668;45.388;11.784;2023-05-07T11:06:52;31.42;37.60
68578;SHT31;61668;45.388;11.784;2023-05-07T11:17:34;32.10;36.53
68578;SHT31;61668;45.388;11.784;2023-05-07T11:20:20;32.10;36.60
68578;SHT31;61668;45.388;11.784;2023-05-07T11:22:46;32.02;36.68
68578;SHT31;61668;45.388;11.784;2023-05-07T11:25:19;31.90;36.22
68578;SHT31;61668;45.388;11.784;2023-05-07T11:27:45;31.86;36.15
68578;SHT31;61668;45.388;11.784;2023-05-07T11:30:18;31.87;36.13
68578;SHT31;61668;45.388;11.784;2023-05-07T11:32:46;31.86;35.91
68578;SHT31;61668;45.388;11.784;2023-05-07T11:35:13;31.79;35.93
68578;SHT31;61668;45.388;11.784;2023-05-07T11:37:41;31.81;35.74
68578;SHT31;61668;45.388;11.784;2023-05-07T11:40:07;31.82;35.94
68578;SHT31;61668;45.388;11.784;2023-05-07T11:42:36;31.77;36.05
68578;SHT31;61668;45.388;11.784;2023-05-07T11:45:05;31.65;36.22
68578;SHT31;61668;45.388;11.784;2023-05-07T11:47:32;31.61;36.36
68578;SHT31;61668;45.388;11.784;2023-05-07T11:50:03;31.54;36.83
68578;SHT31;61668;45.388;11.784;2023-05-07T11:52:32;31.47;36.96
68578;SHT31;61668;45.388;11.784;2023-05-07T11:54:59;31.49;37.25
68578;SHT31;61668;45.388;11.784;2023-05-07T11:57:26;31.64;37.03
68578;SHT31;61668;45.388;11.784;2023-05-07T11:59:57;31.68;36.66
68578;SHT31;61668;45.388;11.784;2023-05-07T12:02:27;31.60;36.77
68578;SHT31;61668;45.388;11.784;2023-05-07T12:04:54;31.52;36.44
68578;SHT31;61668;45.388;11.784;2023-05-07T12:07:20;31.43;36.72
68578;SHT31;61668;45.388;11.784;2023-05-07T12:09:46;31.40;36.62
68578;SHT31;61668;45.388;11.784;2023-05-07T12:12:13;31.42;36.73
68578;SHT31;61668;45.388;11.784;2023-05-07T12:14:42;31.51;37.14
68578;SHT31;61668;45.388;11.784;2023-05-07T12:17:10;31.63;36.96
68578;SHT31;61668;45.388;11.784;2023-05-07T12:19:39;31.74;36.77
68578;SHT31;61668;45.388;11.784;2023-05-07T12:22:08;31.86;37.12
68578;SHT31;61668;45.388;11.784;2023-05-07T12:24:42;31.94;36.85
68578;SHT31;61668;45.388;11.784;2023-05-07T12:27:16;31.97;36.93
68578;SHT31;61668;45.388;11.784;2023-05-07T12:29:49;32.01;37.19
68578;SHT31;61668;45.388;11.784;2023-05-07T12:32:16;32.07;37.03
68578;SHT31;61668;45.388;11.784;2023-05-07T12:34:44;32.15;37.05
68578;SHT31;61668;45.388;11.784;2023-05-07T12:37:11;32.12;36.69
68578;SHT31;61668;45.388;11.784;2023-05-07T12:39:50;31.95;36.34
68578;SHT31;61668;45.388;11.784;2023-05-07T12:42:37;31.77;36.56
68578;SHT31;61668;45.388;11.784;2023-05-07T12:45:10;31.63;37.08
68578;SHT31;61668;45.388;11.784;2023-05-07T12:47:38;31.58;37.50
68578;SHT31;61668;45.388;11.784;2023-05-07T12:50:07;31.64;37.54
68578;SHT31;61668;45.388;11.784;2023-05-07T12:52:33;31.64;37.21
68578;SHT31;61668;45.388;11.784;2023-05-07T12:55:06;31.61;37.23
68578;SHT31;61668;45.388;11.784;2023-05-07T12:57:41;31.58;37.36
68578;SHT31;61668;45.388;11.784;2023-05-07T13:00:08;31.53;37.86
68578;SHT31;61668;45.388;11.784;2023-05-07T13:02:39;31.55;37.54
68578;SHT31;61668;45.388;11.784;2023-05-07T13:05:07;31.58;37.49
68578;SHT31;61668;45.388;11.784;2023-05-07T13:07:33;31.64;37.07
68578;SHT31;61668;45.388;11.784;2023-05-07T13:09:59;31.60;36.71
68578;SHT31;61668;45.388;11.784;2023-05-07T13:12:25;31.61;36.70
68578;SHT31;61668;45.388;11.784;2023-05-07T13:14:51;31.67;36.81
68578;SHT31;61668;45.388;11.784;2023-05-07T13:17:17;31.71;36.94
68578;SHT31;61668;45.388;11.784;2023-05-07T13:19:43;31.72;36.90
68578;SHT31;61668;45.388;11.784;2023-05-07T13:22:09;31.78;36.89
68578;SHT31;61668;45.388;11.784;2023-05-07T13:24:35;31.76;36.19
68578;SHT31;61668;45.388;11.784;2023-05-07T13:27:01;31.58;36.54
68578;SHT31;61668;45.388;11.784;2023-05-07T13:29:28;31.42;36.92
68578;SHT31;61668;45.388;11.784;2023-05-07T13:31:58;31.32;36.78
68578;SHT31;61668;45.388;11.784;2023-05-07T13:34:25;31.23;36.85
68578;SHT31;61668;45.388;11.784;2023-05-07T13:36:50;31.18;37.12
68578;SHT31;61668;45.388;11.784;2023-05-07T13:39:17;31.18;37.14
68578;SHT31;61668;45.388;11.784;2023-05-07T13:41:43;31.17;37.40
68578;SHT31;61668;45.388;11.784;2023-05-07T13:44:08;31.20;37.37
68578;SHT31;61668;45.388;11.784;2023-05-07T13:46:34;31.23;37.13
68578;SHT31;61668;45.388;11.784;2023-05-07T13:49:00;31.18;36.90
68578;SHT31;61668;45.388;11.784;2023-05-07T13:51:26;31.10;36.73
68578;SHT31;61668;45.388;11.784;2023-05-07T13:53:52;31.00;36.93
68578;SHT31;61668;45.388;11.784;2023-05-07T13:56:17;30.96;36.88
68578;SHT31;61668;45.388;11.784;2023-05-07T13:58:43;31.01;36.94
68578;SHT31;61668;45.388;11.784;2023-05-07T14:01:09;30.97;36.72
68578;SHT31;61668;45.388;11.784;2023-05-07T14:03:35;30.96;36.96
68578;SHT31;61668;45.388;11.784;2023-05-07T14:06:03;31.04;36.84
68578;SHT31;61668;45.388;11.784;2023-05-07T14:08:29;31.00;36.58
68578;SHT31;61668;45.388;11.784;2023-05-07T14:10:55;30.97;36.79
68578;SHT31;61668;45.388;11.784;2023-05-07T14:13:20;30.93;36.65
68578;SHT31;61668;45.388;11.784;2023-05-07T14:15:46;30.90;36.75
68578;SHT31;61668;45.388;11.784;2023-05-07T14:18:14;30.83;36.67
68578;SHT31;61668;45.388;11.784;2023-05-07T14:20:40;30.82;36.67
68578;SHT31;61668;45.388;11.784;2023-05-07T14:23:08;30.80;36.59
68578;SHT31;61668;45.388;11.784;2023-05-07T14:25:34;30.68;36.45
68578;SHT31;61668;45.388;11.784;2023-05-07T14:28:00;30.50;36.49
68578;SHT31;61668;45.388;11.784;2023-05-07T14:30:26;30.33;36.70
68578;SHT31;61668;45.388;11.784;2023-05-07T14:32:51;30.14;36.84
68578;SHT31;61668;45.388;11.784;2023-05-07T14:35:17;29.98;37.18
68578;SHT31;61668;45.388;11.784;2023-05-07T14:37:43;29.84;37.44
68578;SHT31;61668;45.388;11.784;2023-05-07T14:40:09;29.74;37.68
68578;SHT31;61668;45.388;11.784;2023-05-07T14:42:35;29.69;37.71
68578;SHT31;61668;45.388;11.784;2023-05-07T14:45:01;29.70;37.44
68578;SHT31;61668;45.388;11.784;2023-05-07T14:47:27;29.69;37.36
68578;SHT31;61668;45.388;11.784;2023-05-07T14:49:53;29.64;37.53
68578;SHT31;61668;45.388;11.784;2023-05-07T14:52:20;29.63;38.05
68578;SHT31;61668;45.388;11.784;2023-05-07T14:54:45;29.58;38.97
68578;SHT31;61668;45.388;11.784;2023-05-07T14:57:13;29.49;39.29
68578;SHT31;61668;45.388;11.784;2023-05-07T14:59:41;29.42;39.54
68578;SHT31;61668;45.388;11.784;2023-05-07T15:02:07;29.42;39.97
68578;SHT31;61668;45.388;11.784;2023-05-07T15:04:36;29.44;40.02
68578;SHT31;61668;45.388;11.784;2023-05-07T15:07:03;29.45;40.18
68578;SHT31;61668;45.388;11.784;2023-05-07T15:09:29;29.38;40.59
68578;SHT31;61668;45.388;11.784;2023-05-07T15:11:55;29.30;41.23
68578;SHT31;61668;45.388;11.784;2023-05-07T15:14:24;29.18;41.07
68578;SHT31;61668;45.388;11.784;2023-05-07T15:16:50;29.08;41.19
68578;SHT31;61668;45.388;11.784;2023-05-07T15:19:15;28.97;41.83
68578;SHT31;61668;45.388;11.784;2023-05-07T15:21:41;28.87;42.29
68578;SHT31;61668;45.388;11.784;2023-05-07T15:24:09;28.70;42.65
68578;SHT31;61668;45.388;11.784;2023-05-07T15:26:35;28.57;42.98
68578;SHT31;61668;45.388;11.784;2023-05-07T15:29:01;28.48;43.09
68578;SHT31;61668;45.388;11.784;2023-05-07T15:31:28;28.40;43.63
68578;SHT31;61668;45.388;11.784;2023-05-07T15:33:54;28.34;43.90
68578;SHT31;61668;45.388;11.784;2023-05-07T15:36:21;28.24;43.64